Time;durP1;ratioP1;P1;durP2;ratioP2;P2;SDS_P1;SDS_P2;PMS_P1;PMS_P2;Temp;Humidity;BMP_temperature;BMP_pressure;BME280_temperature;BME280_humidity;BME280_pressure;Samples;Min_cycle;Max_cycle;Signal;HPM_P1;HPM_P2
2024/01/16 00:00:46;;;;;;;7.17;1.97;;;-0.60;99.90;;;;;;5026560;28;20436;-65
2024/01/16 00:03:12;;;;;;;9.93;0.95;;;-0.60;99.90;;;;;;5029006;28;20458;-66
2024/01/16 00:05:37;;;;;;;5.30;0.83;;;-0.60;99.90;;;;;;5028539;28;20041;-64
2024/01/16 00:08:03;;;;;;;7.00;0.80;;;-0.60;99.90;;;;;;5028143;28;20049;-65
2024/01/16 00:10:29;;;;;;;10.20;1.27;;;-0.60;99.90;;;;;;5028749;28;20169;-65
2024/01/16 00:12:55;;;;;;;7.83;1.27;;;-0.70;99.90;;;;;;5028370;28;20069;-64
2024/01/16 00:15:20;;;;;;;8.60;1.03;;;-0.70;99.90;;;;;;5023942;28;20030;-65
2024/01/16 00:17:46;;;;;;;8.43;0.97;;;-0.70;99.90;;;;;;5026330;28;20268;-66
2024/01/16 00:20:12;;;;;;;11.27;0.80;;;-0.70;99.90;;;;;;5028640;28;20515;-66
2024/01/16 00:22:37;;;;;;;8.97;2.10;;;-0.70;99.90;;;;;;5028380;28;20033;-65
2024/01/16 00:25:03;;;;;;;12.10;2.37;;;-0.70;99.90;;;;;;5027885;28;20449;-65
2024/01/16 00:27:29;;;;;;;6.90;1.23;;;-0.70;99.90;;;;;;5030861;28;20033;-64
2024/01/16 00:29:54;;;;;;;12.73;1.70;;;-0.70;99.90;;;;;;5032351;28;20041;-65
2024/01/16 00:32:20;;;;;;;17.93;2.23;;;-0.70;99.90;;;;;;5032031;28;20025;-65
2024/01/16 00:34:45;;;;;;;5.87;1.07;;;-0.70;99.90;;;;;;5031516;28;20420;-65
2024/01/16 00:37:11;;;;;;;13.97;1.80;;;-0.70;99.90;;;;;;5031691;28;20079;-65
2024/01/16 00:39:37;;;;;;;7.87;1.13;;;-0.70;99.90;;;;;;5026779;28;20057;-65
2024/01/16 00:42:03;;;;;;;13.15;1.45;;;-0.70;99.90;;;;;;5030041;28;20049;-65
2024/01/16 00:44:28;;;;;;;8.80;1.08;;;-0.60;99.90;;;;;;5030512;28;20048;-65
2024/01/16 00:46:54;;;;;;;6.33;0.87;;;-0.60;99.90;;;;;;5031193;28;20052;-65
2024/01/16 00:49:20;;;;;;;7.03;1.20;;;-0.60;99.90;;;;;;5027229;28;20393;-66
2024/01/16 00:51:45;;;;;;;10.90;1.63;;;-0.60;99.90;;;;;;5027604;28;20033;-65
2024/01/16 00:54:11;;;;;;;8.53;1.07;;;-0.50;99.90;;;;;;5029007;28;20195;-65
2024/01/16 00:56:36;;;;;;;4.03;0.90;;;-0.50;99.90;;;;;;5031170;28;20042;-65
2024/01/16 00:59:02;;;;;;;9.07;1.07;;;-0.60;99.90;;;;;;5031261;28;20123;-65
2024/01/16 01:01:28;;;;;;;11.25;1.10;;;-0.60;99.90;;;;;;5029625;28;20472;-65
2024/01/16 01:03:54;;;;;;;5.60;1.20;;;-0.50;99.90;;;;;;5030151;28;20045;-64
2024/01/16 01:06:20;;;;;;;8.63;1.02;;;-0.60;99.90;;;;;;5030970;28;20034;-65
2024/01/16 01:08:46;;;;;;;6.93;0.73;;;-0.60;99.90;;;;;;5030466;28;20593;-66
2024/01/16 01:11:12;;;;;;;8.77;1.23;;;-0.60;99.90;;;;;;5027898;28;20042;-65
2024/01/16 01:13:38;;;;;;;8.63;1.00;;;-0.60;99.90;;;;;;5025119;28;20072;-64
2024/01/16 01:16:04;;;;;;;8.67;1.17;;;-0.60;99.90;;;;;;5031501;28;20072;-64
2024/01/16 01:18:29;;;;;;;10.77;1.23;;;-0.50;99.90;;;;;;5030113;28;20072;-65
2024/01/16 01:20:55;;;;;;;12.63;0.80;;;-0.50;99.90;;;;;;5029135;28;20044;-65
2024/01/16 01:23:21;;;;;;;14.45;1.05;;;-0.40;99.90;;;;;;5027704;28;20491;-66
2024/01/16 01:25:47;;;;;;;6.20;1.17;;;-0.40;99.90;;;;;;5030341;28;20029;-66
2024/01/16 01:28:12;;;;;;;8.40;0.77;;;-0.30;99.90;;;;;;5029729;28;20435;-65
2024/01/16 01:30:38;;;;;;;6.57;0.80;;;-0.30;99.90;;;;;;5027847;28;20041;-65
2024/01/16 01:33:04;;;;;;;12.07;1.35;;;-0.30;99.90;;;;;;5030628;28;20440;-65
2024/01/16 01:35:30;;;;;;;6.25;0.73;;;-0.30;99.90;;;;;;5028090;28;20056;-65
2024/01/16 01:37:56;;;;;;;6.50;0.70;;;-0.30;99.90;;;;;;5026077;28;20088;-66
2024/01/16 01:40:21;;;;;;;7.43;2.05;;;-0.30;99.90;;;;;;5030296;28;20040;-66
2024/01/16 01:42:47;;;;;;;4.07;0.80;;;-0.30;99.90;;;;;;5028661;28;20095;-66
2024/01/16 01:45:13;;;;;;;8.50;1.13;;;-0.30;99.90;;;;;;5030593;28;20041;-65
2024/01/16 01:47:42;;;;;;;5.67;0.87;;;-0.30;99.90;;;;;;5029774;28;20036;-65
2024/01/16 01:50:08;;;;;;;7.20;0.90;;;-0.30;99.90;;;;;;5018605;28;20045;-65
2024/01/16 01:52:36;;;;;;;6.78;0.70;;;-0.30;99.90;;;;;;5030896;28;20045;-66
2024/01/16 01:55:03;;;;;;;5.18;0.88;;;-0.30;99.90;;;;;;5030311;28;20397;-66
2024/01/16 01:57:29;;;;;;;3.42;0.57;;;-0.40;99.90;;;;;;5030127;28;20041;-65
2024/01/16 01:59:55;;;;;;;12.35;1.30;;;-0.40;99.90;;;;;;5023800;28;20068;-65
2024/01/16 02:02:22;;;;;;;11.95;0.82;;;-0.40;99.90;;;;;;5027617;28;20037;-65
2024/01/16 02:04:47;;;;;;;;;;;-0.40;99.90;;;;;;5029079;28;20122;-65
2024/01/16 02:07:15;;;;;;;6.78;0.93;;;-0.40;99.90;;;;;;5028993;28;19964;-66
2024/01/16 02:09:41;;;;;;;4.53;0.63;;;-0.40;99.90;;;;;;5022669;28;20142;-65
2024/01/16 02:12:07;;;;;;;5.33;0.57;;;-0.40;99.90;;;;;;5030265;28;20121;-66
2024/01/16 02:14:33;;;;;;;4.47;1.45;;;-0.30;99.90;;;;;;5026921;28;20222;-65
2024/01/16 02:16:58;;;;;;;14.30;1.23;;;-0.30;99.90;;;;;;5030134;28;20053;-66
2024/01/16 02:19:25;;;;;;;5.17;0.60;;;-0.30;99.90;;;;;;5026783;28;20041;-66
2024/01/16 02:21:54;;;;;;;4.45;0.70;;;-0.30;99.90;;;;;;5030205;28;20282;-66
2024/01/16 02:24:21;;;;;;;7.70;1.13;;;-0.30;99.90;;;;;;5023283;28;20116;-66
2024/01/16 02:26:46;;;;;;;5.82;1.33;;;-0.30;99.90;;;;;;5028291;28;20060;-67
2024/01/16 02:29:12;;;;;;;7.90;0.63;;;-0.30;99.90;;;;;;5022160;28;20034;-66
2024/01/16 02:31:38;;;;;;;10.87;0.80;;;-0.30;99.90;;;;;;5025521;28;20121;-66
2024/01/16 02:34:06;;;;;;;6.43;1.00;;;-0.30;99.90;;;;;;5024642;28;20294;-66
2024/01/16 02:36:32;;;;;;;3.50;0.60;;;-0.30;99.90;;;;;;5027357;28;20044;-66
2024/01/16 02:38:58;;;;;;;10.88;1.10;;;-0.30;99.90;;;;;;5027950;28;20079;-66
2024/01/16 02:41:23;;;;;;;8.77;0.63;;;-0.30;99.90;;;;;;5030189;28;20034;-65
2024/01/16 02:43:49;;;;;;;6.03;0.70;;;-0.40;99.90;;;;;;5023807;28;20041;-66
2024/01/16 02:46:15;;;;;;;3.60;0.90;;;-0.40;99.90;;;;;;5029847;28;20244;-67
2024/01/16 02:48:42;;;;;;;14.50;1.73;;;-0.40;99.90;;;;;;5027111;28;20452;-63
2024/01/16 02:51:08;;;;;;;5.70;0.70;;;-0.50;99.90;;;;;;5029657;28;20485;-65
2024/01/16 02:53:34;;;;;;;5.75;0.60;;;-0.50;99.90;;;;;;5030449;28;20047;-65
2024/01/16 02:56:00;;;;;;;10.75;0.82;;;-0.50;99.90;;;;;;5029128;28;20033;-66
2024/01/16 02:58:26;;;;;;;4.23;0.93;;;-0.50;99.90;;;;;;5028682;28;20522;-64
2024/01/16 03:00:52;;;;;;;;;;;-0.50;99.90;;;;;;5029277;28;20120;-65
2024/01/16 03:03:18;;;;;;;7.07;0.75;;;-0.50;99.90;;;;;;5028620;28;20003;-65
2024/01/16 03:05:44;;;;;;;9.18;0.75;;;-0.40;99.90;;;;;;5029013;28;20049;-65
2024/01/16 03:08:10;;;;;;;5.00;0.68;;;-0.40;99.90;;;;;;5029086;28;20441;-66
2024/01/16 03:10:36;;;;;;;11.33;1.27;;;-0.40;99.90;;;;;;5029226;28;20496;-67
2024/01/16 03:13:02;;;;;;;5.30;0.70;;;-0.30;99.90;;;;;;5043977;28;20435;-67
2024/01/16 03:15:29;;;;;;;4.30;0.80;;;-0.30;99.90;;;;;;5029072;28;20272;-67
2024/01/16 03:17:55;;;;;;;7.80;1.00;;;-0.30;99.90;;;;;;5028604;28;20041;-68
2024/01/16 03:20:23;;;;;;;8.40;1.30;;;-0.30;99.90;;;;;;5036600;28;20116;-67
2024/01/16 03:22:48;;;;;;;8.10;0.63;;;-0.20;99.90;;;;;;5028738;28;20512;-67
2024/01/16 03:25:14;;;;;;;5.10;0.82;;;-0.20;99.90;;;;;;5028200;28;20115;-64
2024/01/16 03:27:40;;;;;;;15.13;1.47;;;-0.20;99.90;;;;;;5028335;28;20504;-65
2024/01/16 03:30:06;;;;;;;6.57;0.70;;;-0.20;99.90;;;;;;5028678;28;20117;-65
2024/01/16 03:32:32;;;;;;;9.05;1.13;;;-0.20;99.90;;;;;;5028601;28;20564;-65
2024/01/16 03:34:57;;;;;;;11.10;1.65;;;-0.20;99.90;;;;;;5026927;28;20133;-65
2024/01/16 03:37:23;;;;;;;10.60;1.13;;;-0.20;99.90;;;;;;5028312;28;20041;-65
2024/01/16 03:39:50;;;;;;;9.03;1.10;;;-0.20;99.90;;;;;;5024901;28;20492;-65
2024/01/16 03:42:16;;;;;;;11.23;2.70;;;-0.20;99.90;;;;;;5029233;28;20512;-66
2024/01/16 03:44:42;;;;;;;10.13;1.77;;;-0.20;99.90;;;;;;5027801;28;20128;-66
2024/01/16 03:47:08;;;;;;;4.15;1.58;;;-0.20;99.90;;;;;;5027104;28;20060;-65
2024/01/16 03:49:34;;;;;;;9.98;1.30;;;-0.30;99.90;;;;;;5028687;28;20408;-65
2024/01/16 03:52:00;;;;;;;14.63;1.67;;;-0.30;99.90;;;;;;5026058;28;20060;-66
2024/01/16 03:54:25;;;;;;;7.20;1.30;;;-0.30;99.90;;;;;;5027069;28;20053;-66
2024/01/16 03:56:51;;;;;;;3.87;0.50;;;-0.30;99.90;;;;;;5028530;28;20412;-66
2024/01/16 03:59:17;;;;;;;7.65;0.93;;;-0.30;99.90;;;;;;5027467;28;20053;-66
2024/01/16 04:01:44;;;;;;;7.43;1.17;;;-0.30;99.90;;;;;;5029779;28;20061;-66
2024/01/16 04:04:10;;;;;;;;;;;-0.30;99.90;;;;;;5031334;28;20049;-66
2024/01/16 04:06:36;;;;;;;9.27;1.40;;;-0.20;99.90;;;;;;5031505;28;19963;-66
2024/01/16 04:09:02;;;;;;;10.75;0.93;;;-0.20;99.90;;;;;;5027782;28;20049;-65
2024/01/16 04:11:28;;;;;;;10.23;1.55;;;-0.20;99.90;;;;;;5032558;28;20049;-65
2024/01/16 04:13:54;;;;;;;8.25;1.40;;;-0.10;99.90;;;;;;5031795;28;20092;-66
2024/01/16 04:16:20;;;;;;;6.13;1.10;;;-0.10;99.90;;;;;;5037483;28;20045;-66
2024/01/16 04:18:45;;;;;;;9.93;1.53;;;-0.10;99.90;;;;;;5034970;28;20042;-65
2024/01/16 04:21:11;;;;;;;12.63;0.70;;;-0.10;99.90;;;;;;5042354;28;20454;-68
2024/01/16 04:23:37;;;;;;;10.83;1.00;;;-0.10;99.90;;;;;;5034368;28;20424;-66
2024/01/16 04:26:02;;;;;;;7.10;1.07;;;-0.10;99.90;;;;;;5030735;28;20136;-66
2024/01/16 04:28:28;;;;;;;14.53;1.17;;;0.00;99.90;;;;;;5042843;28;20480;-65
2024/01/16 04:30:54;;;;;;;10.98;0.95;;;0.00;99.90;;;;;;5040411;28;20518;-68
2024/01/16 04:33:20;;;;;;;7.83;0.80;;;0.00;99.90;;;;;;5032627;28;20069;-66
2024/01/16 04:35:45;;;;;;;7.50;1.40;;;0.00;99.90;;;;;;5030942;28;20268;-65
2024/01/16 04:38:11;;;;;;;12.70;1.03;;;0.00;99.90;;;;;;5031095;28;20115;-66
2024/01/16 04:40:37;;;;;;;10.70;1.43;;;0.00;99.90;;;;;;5029722;28;20046;-66
2024/01/16 04:43:02;;;;;;;7.23;1.07;;;0.00;99.90;;;;;;5032284;28;20045;-66
2024/01/16 04:45:28;;;;;;;13.95;1.13;;;0.00;99.90;;;;;;5028350;28;20100;-66
2024/01/16 04:47:54;;;;;;;4.80;1.13;;;0.00;99.90;;;;;;5031960;28;20575;-65
2024/01/16 04:50:20;;;;;;;8.63;0.70;;;0.00;99.90;;;;;;5040600;28;20034;-66
2024/01/16 04:52:45;;;;;;;8.68;0.73;;;0.00;99.90;;;;;;5030187;28;20037;-66
2024/01/16 04:55:11;;;;;;;4.07;1.13;;;0.00;99.90;;;;;;5028989;28;20326;-66
2024/01/16 04:57:36;;;;;;;8.10;2.33;;;0.00;99.90;;;;;;5027926;28;20496;-63
2024/01/16 05:00:06;;;;;;;4.20;0.60;;;0.00;99.90;;;;;;5042673;28;20045;-66
2024/01/16 05:02:33;;;;;;;8.77;1.33;;;0.00;99.90;;;;;;5028948;28;20049;-66
2024/01/16 05:04:59;;;;;;;8.43;2.17;;;0.00;99.90;;;;;;5028078;28;20068;-66
2024/01/16 05:07:24;;;;;;;6.80;0.83;;;0.00;99.90;;;;;;5030349;28;20033;-66
2024/01/16 05:09:50;;;;;;;4.65;0.82;;;0.00;99.90;;;;;;5029743;28;20041;-66
2024/01/16 05:12:15;;;;;;;7.47;1.13;;;0.00;99.90;;;;;;5038426;28;20033;-66
2024/01/16 05:14:41;;;;;;;5.20;1.33;;;0.00;99.90;;;;;;5032202;28;20539;-65
2024/01/16 05:17:08;;;;;;;7.73;1.10;;;0.00;99.90;;;;;;5035370;28;20045;-66
2024/01/16 05:19:33;;;;;;;;;;;-0.10;99.90;;;;;;5037652;28;20389;-66
2024/01/16 05:21:59;;;;;;;11.98;1.50;;;0.00;99.90;;;;;;5037934;28;19925;-66
2024/01/16 05:24:24;;;;;;;8.87;0.90;;;-0.10;99.90;;;;;;5046187;28;20045;-65
2024/01/16 05:26:50;;;;;;;4.63;1.00;;;-0.10;99.90;;;;;;5032288;28;20451;-65
2024/01/16 05:29:16;;;;;;;8.80;0.97;;;-0.10;99.90;;;;;;5028651;28;20033;-66
2024/01/16 05:31:42;;;;;;;;;;;-0.10;99.90;;;;;;5033284;28;20056;-65
2024/01/16 05:34:09;;;;;;;9.10;1.08;;;-0.10;99.90;;;;;;5002212;28;19931;-66
2024/01/16 05:36:34;;;;;;;9.18;1.80;;;-0.10;99.90;;;;;;5028262;28;20091;-64
2024/01/16 05:39:00;;;;;;;9.83;1.27;;;-0.10;99.90;;;;;;5029990;28;20508;-66
2024/01/16 05:41:26;;;;;;;5.90;1.10;;;-0.10;99.90;;;;;;5028440;28;20313;-66
2024/01/16 05:43:52;;;;;;;6.60;1.13;;;-0.10;99.90;;;;;;5029761;28;20790;-67
2024/01/16 05:46:18;;;;;;;9.03;1.50;;;-0.10;99.90;;;;;;5041699;28;20033;-65
2024/01/16 05:48:44;;;;;;;6.22;1.17;;;-0.10;99.90;;;;;;5022719;28;20149;-66
2024/01/16 05:51:10;;;;;;;11.43;1.80;;;-0.10;99.90;;;;;;5032073;28;20037;-66
2024/01/16 05:53:35;;;;;;;6.70;0.88;;;-0.20;99.90;;;;;;5031044;28;20120;-65
2024/01/16 05:56:01;;;;;;;10.90;1.35;;;-0.10;99.90;;;;;;5029263;28;20037;-66
2024/01/16 05:58:27;;;;;;;9.20;1.13;;;-0.20;99.90;;;;;;5023374;28;20199;-65
2024/01/16 06:00:52;;;;;;;3.87;1.10;;;-0.20;99.90;;;;;;5029357;28;20284;-66
2024/01/16 06:03:18;;;;;;;7.37;2.03;;;-0.20;99.90;;;;;;5030509;28;20033;-65
2024/01/16 06:05:44;;;;;;;7.07;0.77;;;-0.10;99.90;;;;;;5030057;28;20432;-66
2024/01/16 06:08:09;;;;;;;12.07;1.20;;;-0.10;99.90;;;;;;5030484;28;20041;-66
2024/01/16 06:10:35;;;;;;;8.20;1.47;;;-0.10;99.90;;;;;;5029289;28;20407;-65
2024/01/16 06:13:01;;;;;;;9.63;1.53;;;-0.10;99.90;;;;;;5024579;28;20049;-65
2024/01/16 06:15:26;;;;;;;5.33;1.00;;;-0.10;99.90;;;;;;5027131;28;20041;-66
2024/01/16 06:17:52;;;;;;;9.23;1.47;;;-0.10;99.90;;;;;;5028518;28;20038;-66
2024/01/16 06:20:17;;;;;;;9.70;1.40;;;-0.10;99.90;;;;;;5027874;28;20041;-65
2024/01/16 06:22:43;;;;;;;3.93;1.00;;;-0.10;99.90;;;;;;5029699;28;20117;-65
2024/01/16 06:25:08;;;;;;;4.00;0.90;;;-0.10;99.90;;;;;;5011718;28;20041;-66
2024/01/16 06:27:34;;;;;;;7.47;1.23;;;-0.10;99.90;;;;;;5022540;28;20100;-66
2024/01/16 06:30:00;;;;;;;10.00;3.22;;;-0.10;99.90;;;;;;5027439;28;20496;-68
2024/01/16 06:32:25;;;;;;;6.03;1.30;;;-0.10;99.90;;;;;;5035377;28;20034;-65
2024/01/16 06:34:51;;;;;;;10.20;1.97;;;-0.10;99.90;;;;;;5023539;28;20060;-66
2024/01/16 06:37:16;;;;;;;3.43;1.30;;;-0.10;99.90;;;;;;5021639;28;20046;-66
2024/01/16 06:39:42;;;;;;;8.23;2.07;;;0.00;99.90;;;;;;5029129;28;20037;-66
2024/01/16 06:42:08;;;;;;;7.63;1.60;;;0.00;99.90;;;;;;5022928;28;20060;-65
2024/01/16 06:44:34;;;;;;;10.25;2.90;;;0.00;99.90;;;;;;5020729;28;20447;-65
2024/01/16 06:47:00;;;;;;;4.53;2.00;;;0.00;99.90;;;;;;5027391;28;20045;-65
2024/01/16 06:49:26;;;;;;;9.83;1.63;;;0.00;99.90;;;;;;5024098;28;20029;-66
2024/01/16 06:51:52;;;;;;;8.10;2.58;;;0.00;99.90;;;;;;5029588;28;20041;-66
2024/01/16 06:54:20;;;;;;;9.03;2.80;;;0.00;99.90;;;;;;5032487;28;20561;-65
2024/01/16 06:56:46;;;;;;;8.45;2.55;;;0.00;99.90;;;;;;5028406;28;20110;-66
2024/01/16 06:59:11;;;;;;;4.45;1.75;;;0.00;99.90;;;;;;5033756;28;20107;-66
2024/01/16 07:01:37;;;;;;;9.47;2.47;;;0.00;99.90;;;;;;5029646;28;20749;-66
2024/01/16 07:04:03;;;;;;;3.07;1.77;;;0.00;99.90;;;;;;5027684;28;20538;-66
2024/01/16 07:06:28;;;;;;;8.20;1.77;;;0.00;99.90;;;;;;5029957;28;20034;-66
2024/01/16 07:08:54;;;;;;;7.47;3.13;;;0.00;99.90;;;;;;5032557;28;20045;-65
2024/01/16 07:11:20;;;;;;;6.93;1.93;;;0.00;99.90;;;;;;5036027;28;20544;-66
2024/01/16 07:13:46;;;;;;;7.35;1.98;;;0.00;99.90;;;;;;5038298;28;20044;-67
2024/01/16 07:16:12;;;;;;;7.73;2.13;;;0.00;99.90;;;;;;5031532;28;20272;-65
2024/01/16 07:18:39;;;;;;;13.65;2.65;;;0.00;99.90;;;;;;5029393;28;20292;-67
2024/01/16 07:21:04;;;;;;;;;;;0.00;99.90;;;;;;5029850;28;20048;-66
2024/01/16 07:23:30;;;;;;;2.70;2.05;;;-0.10;99.90;;;;;;5025845;28;19917;-66
2024/01/16 07:25:56;;;;;;;4.20;1.77;;;-0.10;99.90;;;;;;5026078;28;20408;-66
2024/01/16 07:28:22;;;;;;;8.00;2.15;;;-0.10;99.90;;;;;;5011674;28;20037;-65
2024/01/16 07:30:48;;;;;;;6.00;2.17;;;-0.10;99.90;;;;;;5019480;28;20041;-67
2024/01/16 07:33:14;;;;;;;8.07;2.53;;;-0.10;99.90;;;;;;5026656;28;20040;-67
2024/01/16 07:35:47;;;;;;;6.20;2.33;;;-0.10;99.90;;;;;;5019296;28;20288;-66
2024/01/16 07:38:13;;;;;;;10.40;3.13;;;0.00;99.90;;;;;;5019445;28;20116;-63
2024/01/16 07:40:38;;;;;;;9.47;2.60;;;0.00;99.90;;;;;;5024889;28;20871;-68
2024/01/16 07:43:04;;;;;;;6.50;2.33;;;0.00;99.90;;;;;;5025723;28;20044;-67
2024/01/16 07:45:29;;;;;;;3.33;2.33;;;0.00;99.90;;;;;;5023606;28;20423;-67
2024/01/16 07:47:55;;;;;;;10.43;2.60;;;-0.10;99.90;;;;;;5018551;28;20400;-67
2024/01/16 07:50:21;;;;;;;4.40;2.33;;;0.00;99.90;;;;;;5026981;28;20432;-66
2024/01/16 07:52:46;;;;;;;9.23;3.03;;;0.00;99.90;;;;;;5017567;28;20044;-69
2024/01/16 07:55:12;;;;;;;6.73;2.87;;;0.00;99.90;;;;;;5015721;28;20033;-68
2024/01/16 07:57:37;;;;;;;8.33;3.57;;;0.00;99.90;;;;;;5018809;28;20072;-66
2024/01/16 08:00:05;;;;;;;9.33;2.20;;;0.00;99.90;;;;;;5029261;28;20315;-68
2024/01/16 08:02:34;;;;;;;7.88;2.95;;;0.00;99.90;;;;;;5018690;28;20479;-66
2024/01/16 08:05:00;;;;;;;4.07;1.92;;;0.00;99.90;;;;;;5022080;28;20437;-66
2024/01/16 08:07:27;;;;;;;3.70;2.73;;;0.10;99.90;;;;;;5018637;28;20175;-67
2024/01/16 08:09:52;;;;;;;3.55;2.08;;;0.10;99.90;;;;;;5020415;28;20452;-67
2024/01/16 08:12:18;;;;;;;7.33;2.90;;;0.10;99.90;;;;;;5022629;28;20033;-67
2024/01/16 08:14:44;;;;;;;7.97;3.33;;;0.20;99.90;;;;;;5045186;28;20041;-66
2024/01/16 08:17:09;;;;;;;5.83;3.13;;;0.20;99.90;;;;;;5023174;28;20418;-68
2024/01/16 08:19:35;;;;;;;15.93;2.93;;;0.20;99.90;;;;;;5026368;28;20499;-68
2024/01/16 08:22:04;;;;;;;10.57;2.95;;;0.20;99.90;;;;;;5022578;28;20412;-66
2024/01/16 08:24:31;;;;;;;10.88;2.58;;;0.20;99.90;;;;;;5016599;28;20077;-67
2024/01/16 08:26:59;;;;;;;;;;;0.20;99.90;;;;;;5027567;28;20037;-68
2024/01/16 08:29:25;;;;;;;6.78;3.40;;;0.30;99.90;;;;;;5022425;28;20122;-65
2024/01/16 08:31:53;;;;;;;6.72;3.40;;;0.30;99.90;;;;;;5025007;28;20112;-67
2024/01/16 08:34:19;;;;;;;8.02;3.50;;;0.30;99.90;;;;;;5025770;28;20492;-67
2024/01/16 08:36:45;;;;;;;14.50;3.78;;;0.30;99.90;;;;;;5026822;28;20040;-66
2024/01/16 08:39:11;;;;;;;6.07;3.42;;;0.30;99.90;;;;;;5025833;28;20045;-66
2024/01/16 08:41:37;;;;;;;11.00;4.27;;;0.40;99.90;;;;;;5023413;28;20076;-63
2024/01/16 08:44:03;;;;;;;6.25;4.57;;;0.40;99.90;;;;;;5021908;28;20041;-64
2024/01/16 08:46:29;;;;;;;;;;;0.40;99.90;;;;;;5018147;28;20467;-67
2024/01/16 08:48:55;;;;;;;9.85;4.82;;;0.50;99.90;;;;;;5024191;28;19925;-67
2024/01/16 08:51:20;;;;;;;16.47;5.20;;;0.50;99.90;;;;;;5019939;28;20029;-66
2024/01/16 08:53:46;;;;;;;14.25;6.00;;;0.50;99.90;;;;;;5021171;28;20288;-63
2024/01/16 08:56:12;;;;;;;13.70;5.87;;;0.50;99.90;;;;;;5027385;28;20254;-65
2024/01/16 08:58:38;;;;;;;13.77;5.37;;;0.60;99.90;;;;;;5020096;28;20044;-66
2024/01/16 09:01:07;;;;;;;12.57;5.65;;;0.70;99.90;;;;;;5041613;28;20512;-66
2024/01/16 09:03:34;;;;;;;9.50;5.75;;;0.70;99.90;;;;;;5023945;28;20041;-65
2024/01/16 09:06:00;;;;;;;;;;;0.70;99.90;;;;;;5022487;28;20412;-65
2024/01/16 09:08:26;;;;;;;10.60;5.43;;;0.80;99.90;;;;;;5021033;28;19928;-65
2024/01/16 09:10:53;;;;;;;11.30;5.07;;;0.80;99.90;;;;;;5026958;28;20120;-65
2024/01/16 09:13:20;;;;;;;15.50;5.85;;;0.80;99.90;;;;;;5025969;28;20036;-65
2024/01/16 09:15:46;;;;;;;10.48;5.22;;;0.80;99.90;;;;;;5027272;28;20481;-64
2024/01/16 09:18:12;;;;;;;10.35;5.95;;;0.80;99.90;;;;;;5025505;28;20176;-66
2024/01/16 09:20:38;;;;;;;14.00;7.28;;;0.90;99.90;;;;;;5024834;28;20120;-64
2024/01/16 09:23:04;;;;;;;15.43;7.00;;;0.90;99.90;;;;;;5041531;28;20147;-64
2024/01/16 09:25:30;;;;;;;13.70;6.03;;;0.90;99.90;;;;;;5024977;28;20042;-64
2024/01/16 09:27:55;;;;;;;15.13;6.43;;;0.90;99.90;;;;;;5021133;28;20048;-64
2024/01/16 09:30:22;;;;;;;8.43;6.27;;;1.00;99.90;;;;;;5024862;28;20029;-66
2024/01/16 09:32:49;;;;;;;13.75;6.35;;;1.00;99.90;;;;;;5020475;28;20355;-66
2024/01/16 09:35:14;;;;;;;9.65;5.93;;;1.10;99.90;;;;;;5026548;28;20711;-66
2024/01/16 09:37:40;;;;;;;14.27;6.28;;;1.10;99.90;;;;;;5020547;28;20153;-65
2024/01/16 09:40:07;;;;;;;10.93;5.87;;;1.10;99.90;;;;;;5024198;28;20072;-64
2024/01/16 09:42:33;;;;;;;11.00;5.38;;;1.10;99.90;;;;;;5019725;28;20045;-65
2024/01/16 09:45:00;;;;;;;18.35;7.00;;;1.10;99.90;;;;;;5023055;28;20052;-65
2024/01/16 09:47:26;;;;;;;11.32;6.13;;;1.10;99.90;;;;;;5025041;28;20740;-66
2024/01/16 09:49:54;;;;;;;12.95;5.82;;;1.10;99.90;;;;;;5023553;28;20309;-65
2024/01/16 09:52:20;;;;;;;10.52;6.07;;;1.00;99.90;;;;;;5021744;28;20076;-66
2024/01/16 09:54:45;;;;;;;10.57;4.78;;;1.10;99.90;;;;;;5022519;28;20061;-65
2024/01/16 09:57:13;;;;;;;8.93;4.60;;;1.10;99.90;;;;;;5024475;28;20504;-66
2024/01/16 09:59:40;;;;;;;7.50;5.55;;;1.10;99.90;;;;;;5024425;28;20041;-65
2024/01/16 10:02:09;;;;;;;10.07;4.78;;;1.10;99.90;;;;;;5025602;28;20424;-65
2024/01/16 10:04:36;;;;;;;9.25;4.85;;;1.20;99.90;;;;;;5019424;28;20044;-66
2024/01/16 10:07:03;;;;;;;8.65;5.07;;;1.20;99.90;;;;;;5023648;28;20526;-65
2024/01/16 10:09:29;;;;;;;10.10;4.57;;;1.20;99.90;;;;;;5020776;28;20099;-66
2024/01/16 10:11:55;;;;;;;10.00;5.40;;;1.20;99.90;;;;;;5021117;28;20033;-64
2024/01/16 10:14:21;;;;;;;8.27;5.25;;;1.20;99.90;;;;;;5024281;28;20507;-65
2024/01/16 10:17:02;;;;;;;11.10;4.43;;;1.30;99.90;;;;;;5025008;28;20037;-65
2024/01/16 10:19:28;;;;;;;9.43;4.47;;;1.30;99.90;;;;;;5023577;28;20045;-64
2024/01/16 10:22:01;;;;;;;10.85;4.22;;;1.30;99.90;;;;;;5024256;28;20048;-66
2024/01/16 10:24:27;;;;;;;6.80;4.47;;;1.30;99.90;;;;;;5025322;28;20072;-65
2024/01/16 10:27:00;;;;;;;9.87;4.67;;;1.30;99.90;;;;;;5024487;28;20049;-66
2024/01/16 10:29:26;;;;;;;11.18;4.15;;;1.30;99.90;;;;;;5020427;28;20037;-66
2024/01/16 10:31:52;;;;;;;8.63;3.70;;;1.30;99.90;;;;;;5024028;28;20572;-66
2024/01/16 10:34:22;;;;;;;9.05;3.95;;;1.30;99.90;;;;;;5025046;28;20036;-66
2024/01/16 10:36:52;;;;;;;7.45;4.03;;;1.30;99.90;;;;;;5026077;28;20124;-64
2024/01/16 10:39:18;;;;;;;8.90;3.30;;;1.30;99.90;;;;;;5025009;28;20077;-65
2024/01/16 10:42:04;;;;;;;7.10;3.72;;;1.30;99.90;;;;;;5019759;28;20052;-62
2024/01/16 10:44:29;;;;;;;8.65;4.22;;;1.30;99.90;;;;;;5024004;28;20080;-64
2024/01/16 10:47:16;;;;;;;6.03;2.97;;;1.30;99.90;;;;;;5025411;28;20072;-65
2024/01/16 10:49:42;;;;;;;7.78;2.97;;;1.40;99.90;;;;;;5022540;28;20120;-64
2024/01/16 10:52:11;;;;;;;8.30;3.30;;;1.30;99.90;;;;;;5012699;28;20069;-65
2024/01/16 10:54:41;;;;;;;3.17;2.10;;;1.40;99.90;;;;;;5025916;28;20116;-63
2024/01/16 10:57:06;;;;;;;5.50;2.28;;;1.40;99.90;;;;;;5022571;28;20589;-63
2024/01/16 10:59:41;;;;;;;7.10;3.07;;;1.50;99.90;;;;;;5008800;28;20049;-64
2024/01/16 11:02:11;;;;;;;5.70;3.15;;;1.50;99.90;;;;;;5030115;28;20045;-65
2024/01/16 11:04:38;;;;;;;9.23;3.38;;;1.50;99.90;;;;;;5012366;28;20076;-64
2024/01/16 11:07:05;;;;;;;10.00;3.33;;;1.50;99.90;;;;;;5010367;28;20041;-65
2024/01/16 11:09:31;;;;;;;;;;;1.60;99.90;;;;;;5009152;28;20475;-65
2024/01/16 11:11:58;;;;;;;8.90;3.97;;;1.60;99.90;;;;;;5024142;28;19921;-62
2024/01/16 11:14:25;;;;;;;9.30;3.72;;;1.70;99.90;;;;;;5018830;28;20117;-64
2024/01/16 11:16:53;;;;;;;10.82;4.40;;;1.80;99.90;;;;;;5024543;28;20029;-65
2024/01/16 11:19:20;;;;;;;5.78;3.25;;;1.80;99.90;;;;;;5023439;28;21047;-65
2024/01/16 11:21:46;;;;;;;5.22;3.58;;;1.90;99.90;;;;;;5023067;28;20413;-65
2024/01/16 11:24:12;;;;;;;5.30;3.97;;;1.90;99.90;;;;;;5022011;28;20040;-62
2024/01/16 11:26:41;;;;;;;17.75;6.03;;;1.90;99.90;;;;;;5023006;28;20071;-64
2024/01/16 11:29:26;;;;;;;3.55;3.25;;;1.90;99.90;;;;;;5007584;28;20083;-63
2024/01/16 11:31:52;;;;;;;7.18;3.92;;;1.90;99.90;;;;;;5023012;28;20611;-65
2024/01/16 11:34:40;;;;;;;10.43;5.20;;;1.90;99.90;;;;;;5024654;28;20041;-65
2024/01/16 11:37:13;;;;;;;8.35;4.35;;;1.80;99.90;;;;;;5004663;28;20044;-65
2024/01/16 11:39:40;;;;;;;10.30;4.28;;;1.80;99.90;;;;;;5012147;28;20041;-64
2024/01/16 11:42:08;;;;;;;11.27;4.97;;;1.80;99.90;;;;;;5028734;28;20154;-65
2024/01/16 11:44:50;;;;;;;8.25;4.93;;;1.80;99.90;;;;;;5024638;28;20030;-65
2024/01/16 11:47:22;;;;;;;10.85;6.22;;;1.80;99.90;;;;;;5022531;28;20041;-64
2024/01/16 11:50:07;;;;;;;11.75;5.78;;;1.80;99.90;;;;;;5023316;28;20527;-64
2024/01/16 11:52:46;;;;;;;14.18;5.32;;;1.80;99.90;;;;;;5024662;28;20129;-65
2024/01/16 11:55:31;;;;;;;13.15;7.10;;;1.80;99.90;;;;;;5018434;28;20097;-65
2024/01/16 11:58:34;;;;;;;9.82;6.32;;;1.80;99.90;;;;;;5022681;28;20552;-64
2024/01/16 12:01:03;;;;;;;21.55;6.68;;;1.80;99.90;;;;;;5038054;28;20082;-64
2024/01/16 12:03:30;;;;;;;19.92;6.85;;;1.80;99.90;;;;;;5022966;28;20073;-64
2024/01/16 12:06:00;;;;;;;17.17;7.75;;;1.80;99.90;;;;;;5020247;28;20053;-64
2024/01/16 12:08:26;;;;;;;20.65;7.00;;;1.70;99.90;;;;;;5023281;28;20520;-65
2024/01/16 12:10:52;;;;;;;12.77;8.65;;;1.70;99.90;;;;;;5022849;28;20049;-65
2024/01/16 12:13:17;;;;;;;13.77;7.82;;;1.70;99.90;;;;;;5024782;28;20030;-66
2024/01/16 12:15:43;;;;;;;16.88;8.30;;;1.70;99.90;;;;;;5022307;28;20132;-64
2024/01/16 12:18:09;;;;;;;16.98;8.75;;;1.70;99.90;;;;;;5024126;28;20041;-65
2024/01/16 12:20:38;;;;;;;16.63;8.98;;;1.70;99.90;;;;;;5024540;28;20041;-64
2024/01/16 12:23:06;;;;;;;14.80;8.25;;;1.80;99.90;;;;;;5029449;28;20696;-65
2024/01/16 12:25:33;;;;;;;20.55;8.75;;;1.80;99.90;;;;;;5028877;28;20052;-65
2024/01/16 12:28:04;;;;;;;12.88;8.30;;;1.80;99.90;;;;;;5031237;28;20036;-65
2024/01/16 12:30:34;;;;;;;16.25;8.23;;;1.70;99.90;;;;;;5025334;28;20068;-65
2024/01/16 12:33:06;;;;;;;19.80;8.57;;;1.80;99.90;;;;;;5030579;28;20045;-66
2024/01/16 12:35:40;;;;;;;21.88;8.88;;;1.80;99.90;;;;;;5028521;28;20404;-64
2024/01/16 12:38:09;;;;;;;15.90;7.97;;;1.70;99.90;;;;;;5027128;28;20279;-65
2024/01/16 12:40:36;;;;;;;25.52;9.25;;;1.70;99.90;;;;;;5028752;28;20076;-64
2024/01/16 12:43:03;;;;;;;14.25;8.55;;;1.70;99.90;;;;;;5026563;28;20033;-65
2024/01/16 12:45:29;;;;;;;12.27;7.57;;;1.70;99.90;;;;;;5025029;28;20046;-65
2024/01/16 12:47:57;;;;;;;12.60;8.00;;;1.70;99.90;;;;;;5023838;28;20617;-65